createdAt,value
2018-08-17T00:00:30.883Z,56.80
2018-08-17T00:03:03.322Z,56.70
2018-08-17T00:05:34.582Z,57.10
2018-08-17T00:08:06.502Z,56.70
2018-08-17T00:10:38.782Z,56.90
2018-08-17T00:13:10.742Z,56.80
2018-08-17T00:15:43.682Z,57.50
2018-08-17T00:18:15.543Z,57.60
2018-08-17T00:20:47.385Z,57.70
2018-08-17T00:23:18.983Z,57.80
2018-08-17T00:25:51.023Z,57.60
2018-08-17T00:28:21.821Z,57.70
2018-08-17T00:30:54.344Z,57.60
2018-08-17T00:33:26.444Z,57.50
2018-08-17T00:35:58.844Z,57.70
2018-08-17T00:38:31.164Z,57.80
2018-08-17T00:41:02.845Z,58.00
2018-08-17T00:43:34.964Z,58.10
2018-08-17T00:46:06.464Z,58.30
2018-08-17T00:48:38.427Z,58.70
2018-08-17T00:51:10.824Z,58.30
2018-08-17T00:53:42.865Z,58.60
2018-08-17T00:56:15.484Z,58.90
2018-08-17T00:58:46.863Z,58.80
2018-08-17T01:01:19.163Z,59.00
2018-08-17T01:03:52.624Z,59.00
2018-08-17T01:06:23.984Z,58.10
2018-08-17T01:08:56.364Z,58.30
2018-08-17T01:11:28.384Z,58.10
2018-08-17T01:14:00.524Z,58.00
2018-08-17T01:16:33.444Z,58.20
2018-08-17T01:19:05.564Z,58.30
2018-08-17T01:21:38.484Z,58.30
2018-08-17T01:24:11.044Z,58.30
2018-08-17T01:26:43.684Z,58.60
2018-08-17T01:29:15.364Z,58.60
2018-08-17T01:31:48.024Z,58.80
2018-08-17T01:34:19.244Z,59.00
2018-08-17T01:36:51.683Z,59.00
2018-08-17T01:39:24.304Z,59.00
2018-08-17T01:41:56.383Z,59.20
2018-08-17T01:44:28.303Z,59.40
2018-08-17T01:47:01.664Z,59.60
2018-08-17T01:49:32.964Z,59.70
2018-08-17T01:52:04.823Z,59.70
2018-08-17T01:54:37.324Z,59.80
2018-08-17T01:57:09.764Z,59.80
2018-08-17T01:59:42.004Z,59.80
2018-08-17T02:02:13.507Z,60.00
2018-08-17T02:04:45.624Z,59.80
2018-08-17T02:07:17.270Z,60.00
2018-08-17T02:09:49.503Z,60.00
2018-08-17T02:12:22.624Z,60.30
2018-08-17T02:14:55.643Z,60.60
2018-08-17T02:17:27.523Z,60.80
2018-08-17T02:19:59.843Z,61.20
2018-08-17T02:22:32.083Z,61.10
2018-08-17T02:25:03.503Z,61.40
2018-08-17T02:27:34.763Z,61.30
2018-08-17T02:30:07.523Z,60.60
2018-08-17T02:32:40.284Z,60.60
2018-08-17T02:35:11.468Z,60.90
2018-08-17T02:37:43.803Z,60.90
2018-08-17T02:40:16.544Z,60.80
2018-08-17T02:42:48.046Z,61.10
2018-08-17T02:45:19.724Z,61.30
2018-08-17T02:47:51.543Z,61.30
2018-08-17T02:50:24.064Z,61.40
2018-08-17T02:52:55.964Z,61.70
2018-08-17T02:55:28.363Z,61.40
2018-08-17T02:58:00.744Z,61.30
2018-08-17T03:00:32.165Z,61.20
2018-08-17T03:03:05.083Z,61.20
2018-08-17T03:05:36.323Z,61.10
2018-08-17T03:08:08.649Z,60.90
2018-08-17T03:10:41.343Z,61.20
2018-08-17T03:13:13.304Z,61.60
2018-08-17T03:15:46.063Z,61.60
2018-08-17T03:18:17.084Z,61.60
2018-08-17T03:20:49.763Z,61.50
2018-08-17T03:23:22.043Z,61.50
2018-08-17T03:25:53.983Z,61.60
2018-08-17T03:28:25.844Z,61.50
2018-08-17T03:30:57.263Z,61.60
2018-08-17T03:33:29.383Z,61.60
2018-08-17T03:36:00.463Z,61.50
2018-08-17T03:38:33.603Z,61.30
2018-08-17T03:41:06.243Z,61.30
2018-08-17T03:43:39.163Z,61.30
2018-08-17T03:46:11.364Z,61.20
2018-08-17T03:48:44.483Z,61.30
2018-08-17T03:51:16.904Z,61.00
2018-08-17T03:53:48.967Z,61.00
2018-08-17T03:56:20.123Z,61.10
2018-08-17T03:58:52.303Z,61.40
2018-08-17T04:01:24.644Z,61.50
2018-08-17T04:03:56.304Z,61.70
2018-08-17T04:06:28.884Z,61.70
2018-08-17T04:09:00.383Z,61.70
2018-08-17T04:11:32.323Z,61.80
2018-08-17T04:14:05.004Z,61.90
2018-08-17T04:16:36.323Z,62.10
2018-08-17T04:19:08.184Z,61.80
2018-08-17T04:21:40.004Z,62.90
2018-08-17T04:24:12.484Z,63.50
2018-08-17T04:26:43.763Z,64.00
2018-08-17T04:29:16.683Z,64.20
2018-08-17T04:31:48.524Z,64.50
2018-08-17T04:34:21.284Z,64.30
2018-08-17T04:36:53.624Z,64.20
2018-08-17T04:39:25.664Z,62.90
2018-08-17T04:41:57.403Z,62.10
2018-08-17T04:44:29.503Z,61.80
2018-08-17T04:47:01.644Z,61.60
2018-08-17T04:49:33.184Z,61.60
2018-08-17T04:52:04.323Z,61.70
2018-08-17T04:54:37.506Z,61.80
2018-08-17T04:57:08.943Z,61.50
2018-08-17T04:59:41.071Z,60.80
2018-08-17T05:02:12.723Z,60.60
2018-08-17T05:04:45.463Z,61.10
2018-08-17T05:07:16.923Z,60.90
2018-08-17T05:09:49.103Z,60.60
2018-08-17T05:12:20.789Z,61.60
2018-08-17T05:14:52.366Z,61.30
2018-08-17T05:17:24.189Z,59.20
2018-08-17T05:19:55.663Z,59.80
2018-08-17T05:22:27.526Z,59.50
2018-08-17T05:24:59.783Z,60.20
2018-08-17T05:27:32.683Z,60.50
2018-08-17T05:30:05.143Z,59.90
2018-08-17T05:32:36.584Z,60.60
2018-08-17T05:35:09.465Z,60.40
2018-08-17T05:37:41.404Z,60.50
2018-08-17T05:40:13.264Z,60.80
2018-08-17T05:42:46.504Z,60.40
2018-08-17T05:45:18.105Z,59.60
2018-08-17T05:47:50.864Z,60.30
2018-08-17T05:50:23.045Z,60.30
2018-08-17T05:52:55.304Z,60.80
2018-08-17T05:55:27.304Z,61.10
2018-08-17T05:57:58.985Z,61.00
2018-08-17T06:00:31.525Z,61.20
2018-08-17T06:03:04.064Z,60.80
2018-08-17T06:05:35.804Z,60.20
2018-08-17T06:08:08.444Z,59.90
2018-08-17T06:10:40.244Z,60.00
2018-08-17T06:13:12.584Z,59.70
2018-08-17T06:15:44.384Z,59.50
2018-08-17T06:18:16.184Z,59.30
2018-08-17T06:20:47.706Z,59.60
2018-08-17T06:23:20.184Z,59.70
2018-08-17T06:25:52.705Z,59.70
2018-08-17T06:28:24.487Z,58.70
2018-08-17T06:30:56.244Z,58.20
2018-08-17T06:33:27.885Z,57.90
2018-08-17T06:36:00.057Z,57.20
2018-08-17T06:38:32.284Z,57.10
2018-08-17T06:41:04.203Z,57.60
2018-08-17T06:43:36.163Z,57.40
2018-08-17T06:46:07.604Z,57.90
2018-08-17T06:48:39.148Z,57.80
2018-08-17T06:51:11.091Z,57.50
2018-08-17T06:53:43.163Z,57.70
2018-08-17T06:56:15.205Z,58.10
2018-08-17T06:58:46.723Z,57.50
2018-08-17T07:01:17.963Z,57.50
2018-08-17T07:03:49.364Z,58.00
2018-08-17T07:06:21.324Z,57.50
2018-08-17T07:08:53.553Z,57.40
2018-08-17T07:11:26.086Z,57.20
2018-08-17T07:13:58.563Z,56.30
2018-08-17T07:16:30.760Z,56.30
2018-08-17T07:19:02.944Z,56.20
2018-08-17T07:21:34.453Z,56.10
2018-08-17T07:24:06.864Z,56.40
2018-08-17T07:26:38.324Z,54.90
2018-08-17T07:29:10.563Z,54.90
2018-08-17T07:31:42.063Z,54.20
2018-08-17T07:34:14.363Z,54.20
2018-08-17T07:36:46.383Z,53.80
2018-08-17T07:39:18.324Z,53.30
2018-08-17T07:41:50.784Z,53.50
2018-08-17T07:44:22.706Z,53.90
2018-08-17T07:46:55.224Z,53.90
2018-08-17T07:49:27.423Z,52.30
2018-08-17T07:51:59.103Z,52.10
2018-08-17T07:54:31.844Z,52.10
2018-08-17T07:57:03.504Z,50.80
2018-08-17T07:59:36.386Z,51.20
2018-08-17T08:02:09.444Z,50.70
2018-08-17T08:04:40.886Z,51.20
2018-08-17T08:07:11.743Z,50.60
2018-08-17T08:09:44.144Z,50.80
2018-08-17T08:12:16.384Z,50.70
2018-08-17T08:14:48.884Z,50.40
2018-08-17T08:17:20.825Z,50.30
2018-08-17T08:20:01.464Z,50.30
2018-08-17T08:22:33.344Z,50.00
2018-08-17T08:25:05.165Z,50.10
2018-08-17T08:27:37.633Z,50.00
2018-08-17T08:30:10.084Z,49.90
2018-08-17T08:32:41.866Z,50.00
2018-08-17T08:35:13.724Z,50.20
2018-08-17T08:37:45.225Z,49.90
2018-08-17T08:40:16.806Z,49.10
2018-08-17T08:42:48.346Z,49.00
2018-08-17T08:45:19.924Z,48.20
2018-08-17T08:47:51.764Z,48.70
2018-08-17T08:50:23.505Z,48.00
2018-08-17T08:52:55.704Z,47.60
2018-08-17T08:55:27.204Z,47.70
2018-08-17T08:57:59.484Z,48.00
2018-08-17T09:00:32.664Z,47.60
2018-08-17T09:03:04.144Z,47.50
2018-08-17T09:05:36.404Z,47.40
2018-08-17T09:08:08.761Z,47.30
2018-08-17T09:10:41.264Z,46.80
2018-08-17T09:13:13.543Z,47.10
2018-08-17T09:15:45.443Z,47.20
2018-08-17T09:18:16.565Z,46.70
2018-08-17T09:20:48.424Z,46.60
2018-08-17T09:23:20.286Z,46.30
2018-08-17T09:25:52.064Z,45.90
2018-08-17T09:28:24.663Z,49.20
2018-08-17T09:30:56.664Z,49.60
2018-08-17T09:33:29.143Z,49.40
2018-08-17T09:36:01.642Z,48.90
2018-08-17T09:38:33.124Z,48.90
2018-08-17T09:41:04.723Z,48.40
2018-08-17T09:43:36.444Z,48.60
2018-08-17T09:46:08.864Z,51.10
2018-08-17T09:48:40.824Z,49.50
2018-08-17T09:51:13.076Z,50.90
2018-08-17T09:53:44.464Z,51.20
2018-08-17T09:56:16.864Z,52.00
2018-08-17T09:58:48.164Z,49.90
2018-08-17T10:01:24.324Z,51.20
2018-08-17T10:05:02.207Z,50.50
2018-08-17T10:07:38.204Z,51.00
2018-08-17T10:10:14.284Z,50.90
2018-08-17T10:12:46.085Z,51.20
2018-08-17T10:15:18.144Z,50.30
2018-08-17T10:17:49.787Z,51.10
2018-08-17T10:20:22.924Z,51.10
2018-08-17T10:22:55.105Z,51.10
2018-08-17T10:25:27.184Z,50.40
2018-08-17T10:27:59.325Z,51.30
2018-08-17T10:30:31.806Z,50.10
2018-08-17T10:33:04.017Z,51.20
2018-08-17T10:35:37.744Z,49.20
2018-08-17T10:38:10.304Z,48.30
2018-08-17T10:40:41.941Z,49.50
2018-08-17T10:43:14.107Z,50.20
2018-08-17T10:45:45.484Z,49.70
2018-08-17T10:48:17.645Z,49.80
2018-08-17T10:50:50.224Z,48.50
2018-08-17T10:53:22.445Z,47.90
2018-08-17T10:55:54.484Z,48.70
2018-08-17T10:58:26.085Z,49.90
2018-08-17T11:00:58.224Z,48.30
2018-08-17T11:03:29.824Z,47.10
2018-08-17T11:06:02.787Z,44.40
2018-08-17T11:08:35.104Z,46.30
2018-08-17T11:11:07.177Z,47.70
2018-08-17T11:13:39.205Z,47.10
2018-08-17T11:16:10.564Z,46.80
2018-08-17T11:18:41.924Z,47.60
2018-08-17T11:21:13.844Z,46.00
2018-08-17T11:23:46.044Z,45.90
2018-08-17T11:26:17.444Z,44.80
2018-08-17T11:28:49.905Z,44.10
2018-08-17T11:31:21.205Z,43.60
2018-08-17T11:33:54.084Z,43.90
2018-08-17T11:36:26.784Z,42.50
2018-08-17T11:38:58.224Z,42.20
2018-08-17T11:41:35.494Z,42.70
2018-08-17T11:44:11.646Z,42.40
2018-08-17T11:46:44.164Z,43.30
2018-08-17T11:49:16.584Z,42.70
2018-08-17T11:51:48.964Z,41.80
2018-08-17T11:54:20.824Z,42.50
2018-08-17T11:56:53.264Z,41.60
2018-08-17T11:59:25.264Z,40.90
2018-08-17T12:01:57.823Z,40.30
2018-08-17T12:04:30.225Z,41.50
2018-08-17T12:07:01.244Z,40.50
2018-08-17T12:09:33.924Z,40.40
2018-08-17T12:12:05.950Z,40.30
2018-08-17T12:14:38.065Z,40.30
2018-08-17T12:17:09.424Z,40.30
2018-08-17T12:19:42.084Z,39.40
2018-08-17T12:22:13.267Z,40.00
2018-08-17T12:24:46.172Z,39.70
2018-08-17T12:27:17.545Z,39.40
2018-08-17T12:29:49.944Z,39.30
2018-08-17T12:32:21.164Z,39.10
2018-08-17T12:34:53.604Z,38.80
2018-08-17T12:37:25.293Z,38.60
2018-08-17T12:39:56.525Z,38.40
2018-08-17T12:42:28.364Z,38.40
2018-08-17T12:45:06.024Z,38.20
2018-08-17T12:47:38.544Z,38.00
2018-08-17T12:50:11.584Z,37.90
2018-08-17T12:52:43.204Z,38.50
2018-08-17T12:55:15.633Z,38.40
2018-08-17T12:57:47.704Z,37.90
2018-08-17T13:00:20.004Z,38.00
2018-08-17T13:02:52.203Z,37.50
2018-08-17T13:05:24.532Z,37.90
2018-08-17T13:07:56.844Z,37.60
2018-08-17T13:10:29.324Z,37.20
2018-08-17T13:13:09.204Z,36.80
2018-08-17T13:15:45.785Z,36.10
2018-08-17T13:18:22.284Z,36.90
2018-08-17T13:20:54.145Z,36.50
2018-08-17T13:23:25.824Z,36.50
2018-08-17T13:25:57.604Z,36.60
2018-08-17T13:28:29.743Z,36.60
2018-08-17T13:31:01.665Z,36.80
2018-08-17T13:33:33.926Z,36.80
2018-08-17T13:36:06.275Z,36.90
2018-08-17T13:38:37.924Z,37.70
2018-08-17T13:41:10.306Z,37.40
2018-08-17T13:43:43.105Z,37.70
2018-08-17T13:46:14.823Z,37.60
2018-08-17T13:48:47.186Z,37.50
2018-08-17T13:51:19.304Z,37.40
2018-08-17T13:53:51.206Z,36.70
2018-08-17T13:56:23.224Z,36.00
2018-08-17T13:58:55.044Z,35.80
2018-08-17T14:01:27.504Z,35.80
2018-08-17T14:03:58.904Z,36.00
2018-08-17T14:06:31.128Z,35.90
2018-08-17T14:09:03.104Z,36.00
2018-08-17T14:11:35.265Z,35.70
2018-08-17T14:14:07.166Z,35.50
2018-08-17T14:16:39.523Z,34.90
2018-08-17T14:19:11.204Z,33.70
2018-08-17T14:21:43.505Z,34.40
2018-08-17T14:24:14.806Z,34.50
2018-08-17T14:26:47.204Z,34.60
2018-08-17T14:29:19.747Z,35.40
2018-08-17T14:31:50.007Z,36.10
2018-08-17T14:34:21.314Z,37.40
2018-08-17T14:36:53.353Z,38.70
2018-08-17T14:39:24.924Z,37.70
2018-08-17T14:42:01.306Z,38.90
2018-08-17T14:44:33.124Z,36.00
2018-08-17T14:47:05.447Z,35.60
2018-08-17T14:49:36.964Z,34.40
2018-08-17T14:52:09.464Z,34.60
2018-08-17T14:54:41.384Z,35.20
2018-08-17T14:57:12.932Z,36.40
2018-08-17T14:59:44.228Z,37.00
2018-08-17T15:02:17.124Z,41.30
2018-08-17T15:04:49.924Z,42.80
2018-08-17T15:07:21.365Z,42.70
2018-08-17T15:09:53.624Z,45.00
2018-08-17T15:12:25.104Z,45.30
2018-08-17T15:14:57.443Z,45.50
2018-08-17T15:17:28.363Z,45.60
2018-08-17T15:20:01.467Z,44.60
2018-08-17T15:22:33.588Z,47.00
2018-08-17T15:25:05.307Z,48.50
2018-08-17T15:27:37.984Z,48.10
2018-08-17T15:30:11.784Z,48.00
2018-08-17T15:32:43.447Z,47.30
2018-08-17T15:35:15.463Z,45.30
2018-08-17T15:37:47.385Z,45.40
2018-08-17T15:40:19.405Z,45.90
2018-08-17T15:42:51.865Z,45.30
2018-08-17T15:45:23.807Z,44.40
2018-08-17T15:47:55.585Z,44.30
2018-08-17T15:50:27.843Z,44.20
2018-08-17T15:53:00.091Z,44.20
2018-08-17T15:55:32.165Z,43.70
2018-08-17T15:58:04.202Z,43.20
2018-08-17T16:00:37.888Z,43.70
2018-08-17T16:03:10.064Z,43.70
2018-08-17T16:05:41.444Z,43.00
2018-08-17T16:08:14.146Z,42.60
2018-08-17T16:10:46.005Z,43.10
2018-08-17T16:13:18.824Z,42.90
2018-08-17T16:15:51.664Z,42.80
2018-08-17T16:18:23.644Z,42.60
2018-08-17T16:20:55.845Z,43.20
2018-08-17T16:23:28.284Z,43.20
2018-08-17T16:26:01.624Z,43.70
2018-08-17T16:28:32.826Z,43.10
2018-08-17T16:31:04.764Z,42.80
2018-08-17T16:33:36.603Z,43.00
2018-08-17T16:36:08.943Z,42.90
2018-08-17T16:38:40.646Z,42.90
2018-08-17T16:41:13.443Z,42.10
2018-08-17T16:43:49.304Z,42.20
2018-08-17T16:46:20.844Z,42.00
2018-08-17T16:48:53.535Z,42.30
2018-08-17T16:51:25.905Z,42.50
2018-08-17T16:53:56.643Z,44.90
2018-08-17T16:56:28.645Z,45.70
2018-08-17T16:59:01.578Z,45.90
2018-08-17T17:01:33.144Z,46.70
2018-08-17T17:04:05.185Z,46.60
2018-08-17T17:06:37.025Z,47.30
2018-08-17T17:09:10.343Z,47.70
2018-08-17T17:11:42.745Z,48.70
2018-08-17T17:14:14.907Z,47.90
2018-08-17T17:16:48.105Z,47.60
2018-08-17T17:19:21.506Z,47.00
2018-08-17T17:21:54.407Z,47.60
2018-08-17T17:24:26.644Z,47.30
2018-08-17T17:26:58.387Z,47.50
2018-08-17T17:29:36.843Z,48.20
2018-08-17T17:32:09.124Z,49.40
2018-08-17T17:34:41.494Z,49.50
2018-08-17T17:37:13.443Z,49.70
2018-08-17T17:39:45.704Z,49.80
2018-08-17T17:42:18.263Z,49.80
2018-08-17T17:44:49.743Z,50.20
2018-08-17T17:47:21.938Z,50.90
2018-08-17T17:49:53.605Z,51.80
2018-08-17T17:52:26.103Z,52.20
2018-08-17T17:54:58.645Z,52.50
2018-08-17T17:57:30.643Z,52.60
2018-08-17T18:00:01.946Z,52.70
2018-08-17T18:02:33.403Z,53.70
2018-08-17T18:05:05.504Z,54.00
2018-08-17T18:07:44.723Z,53.50
2018-08-17T18:10:16.544Z,53.90
2018-08-17T18:12:48.964Z,53.30
2018-08-17T18:15:21.125Z,53.80
2018-08-17T18:17:53.505Z,53.40
2018-08-17T18:20:25.603Z,52.70
2018-08-17T18:22:57.386Z,52.20
2018-08-17T18:25:28.803Z,52.60
2018-08-17T18:28:01.064Z,52.30
2018-08-17T18:30:33.043Z,52.10
2018-08-17T18:33:05.444Z,51.80
2018-08-17T18:35:36.666Z,51.30
2018-08-17T18:38:09.664Z,50.50
2018-08-17T18:40:41.650Z,50.40
2018-08-17T18:43:13.185Z,50.00
2018-08-17T18:45:45.904Z,49.90
2018-08-17T18:48:18.209Z,49.80
2018-08-17T18:50:49.931Z,49.70
2018-08-17T18:53:22.684Z,49.70
2018-08-17T18:55:54.404Z,49.30
2018-08-17T18:58:26.564Z,48.90
2018-08-17T19:00:58.164Z,48.70
2018-08-17T19:03:29.384Z,48.40
2018-08-17T19:06:00.504Z,48.40
2018-08-17T19:08:32.745Z,48.00
2018-08-17T19:11:04.484Z,47.70
2018-08-17T19:13:37.744Z,47.60
2018-08-17T19:16:09.232Z,47.80
2018-08-17T19:18:41.628Z,48.90
2018-08-17T19:21:15.204Z,49.40
2018-08-17T19:23:47.144Z,49.30
2018-08-17T19:26:19.105Z,49.30
2018-08-17T19:28:55.024Z,49.40
2018-08-17T19:31:27.044Z,49.40
2018-08-17T19:33:58.604Z,49.70
2018-08-17T19:36:30.065Z,49.80
2018-08-17T19:39:02.645Z,49.60
2018-08-17T19:41:33.967Z,49.50
2018-08-17T19:44:05.985Z,49.40
2018-08-17T19:46:38.504Z,49.50
2018-08-17T19:49:10.504Z,49.80
2018-08-17T19:51:42.964Z,50.10
2018-08-17T19:54:14.365Z,50.10
2018-08-17T19:56:46.704Z,51.10
2018-08-17T19:59:18.524Z,51.60
2018-08-17T20:01:51.184Z,52.10
2018-08-17T20:04:23.263Z,52.80
2018-08-17T20:06:55.324Z,52.80
2018-08-17T20:09:27.665Z,52.80
2018-08-17T20:11:59.664Z,51.50
2018-08-17T20:14:32.144Z,51.60
2018-08-17T20:17:03.725Z,51.10
2018-08-17T20:19:40.105Z,51.60
2018-08-17T20:22:19.884Z,53.60
2018-08-17T20:24:51.984Z,53.30
2018-08-17T20:27:23.645Z,53.10
2018-08-17T20:29:55.444Z,53.00
2018-08-17T20:32:27.684Z,53.10
2018-08-17T20:34:59.904Z,53.20
2018-08-17T20:37:31.504Z,52.70
2018-08-17T20:40:03.265Z,52.80
2018-08-17T20:42:37.324Z,52.60
2018-08-17T20:45:09.825Z,52.70
2018-08-17T20:47:42.884Z,52.90
2018-08-17T20:50:18.728Z,52.70
2018-08-17T20:52:54.684Z,53.30
2018-08-17T20:55:26.578Z,53.30
2018-08-17T20:57:58.883Z,53.50
2018-08-17T21:00:31.233Z,55.30
2018-08-17T21:03:04.104Z,56.20
2018-08-17T21:05:36.164Z,57.60
2018-08-17T21:08:07.984Z,57.00
2018-08-17T21:10:39.524Z,56.80
2018-08-17T21:13:12.464Z,56.40
2018-08-17T21:15:44.544Z,55.80
2018-08-17T21:18:16.145Z,55.50
2018-08-17T21:20:47.804Z,55.20
2018-08-17T21:23:20.288Z,55.10
2018-08-17T21:25:52.525Z,55.00
2018-08-17T21:28:24.844Z,54.70
2018-08-17T21:30:56.484Z,54.70
2018-08-17T21:33:28.384Z,54.50
2018-08-17T21:36:00.784Z,55.00
2018-08-17T21:38:32.764Z,55.00
2018-08-17T21:41:03.823Z,55.30
2018-08-17T21:43:36.804Z,56.30
2018-08-17T21:46:08.684Z,56.30
2018-08-17T21:48:41.423Z,56.20
2018-08-17T21:51:14.284Z,56.40
2018-08-17T21:53:46.167Z,56.50
2018-08-17T21:56:18.463Z,56.50
2018-08-17T21:58:50.883Z,56.40
2018-08-17T22:01:22.184Z,56.90
2018-08-17T22:03:54.444Z,57.50
2018-08-17T22:06:25.843Z,58.00
2018-08-17T22:08:58.264Z,58.20
2018-08-17T22:11:36.864Z,58.60
2018-08-17T22:14:08.963Z,58.30
2018-08-17T22:16:40.724Z,58.70
2018-08-17T22:19:21.084Z,59.00
2018-08-17T22:21:53.303Z,59.00
2018-08-17T22:24:25.367Z,59.10
2018-08-17T22:26:57.364Z,59.20
2018-08-17T22:29:28.639Z,60.30
2018-08-17T22:32:00.224Z,60.80
2018-08-17T22:34:32.485Z,60.50
2018-08-17T22:37:05.363Z,60.00
2018-08-17T22:39:37.183Z,59.80
2018-08-17T22:42:09.389Z,59.90
2018-08-17T22:44:42.584Z,60.00
2018-08-17T22:47:17.423Z,60.10
2018-08-17T22:49:50.404Z,59.90
2018-08-17T22:52:21.744Z,59.90
2018-08-17T22:54:57.123Z,59.90
2018-08-17T22:57:30.163Z,60.10
2018-08-17T23:00:14.188Z,60.40
2018-08-17T23:02:46.583Z,60.60
2018-08-17T23:05:20.743Z,60.70
2018-08-17T23:07:52.943Z,60.90
2018-08-17T23:10:26.045Z,61.20
2018-08-17T23:12:58.043Z,61.50
2018-08-17T23:15:30.664Z,62.30
2018-08-17T23:18:02.605Z,62.60
2018-08-17T23:20:34.623Z,62.80
2018-08-17T23:23:07.544Z,63.30
2018-08-17T23:25:39.364Z,63.30
2018-08-17T23:28:11.684Z,63.10
2018-08-17T23:30:42.983Z,63.50
2018-08-17T23:33:15.343Z,63.60
2018-08-17T23:35:46.663Z,63.80
2018-08-17T23:38:19.004Z,63.90
2018-08-17T23:40:50.364Z,64.00
2018-08-17T23:43:23.203Z,64.00
2018-08-17T23:45:56.301Z,64.00
2018-08-17T23:48:28.784Z,63.90
2018-08-17T23:51:01.104Z,63.90
2018-08-17T23:53:33.744Z,63.90
2018-08-17T23:56:05.829Z,63.50
2018-08-17T23:58:37.583Z,63.00
